Time;durP1;ratioP1;P1;durP2;ratioP2;P2;SDS_P1;SDS_P2;PMS_P1;PMS_P2;Temp;Humidity;BMP_temperature;BMP_pressure;BME280_temperature;BME280_humidity;BME280_pressure;Samples;Min_cycle;Max_cycle;Signal;HPM_P1;HPM_P2
2021/05/30 00:00:50;;;;;;;9.27;5.05;;;10.60;85.40;;;;;;3586587;40;20048;-82
2021/05/30 00:03:17;;;;;;;16.77;6.20;;;10.60;85.40;;;;;;3577534;40;20040;-81
2021/05/30 00:05:43;;;;;;;10.82;5.13;;;10.50;85.70;;;;;;3587194;40;20044;-80
2021/05/30 00:08:10;;;;;;;19.45;7.05;;;10.60;84.70;;;;;;3577614;40;20161;-82
2021/05/30 00:10:36;;;;;;;11.93;5.55;;;10.60;85.70;;;;;;3577493;40;20079;-81
2021/05/30 00:13:02;;;;;;;14.88;6.93;;;10.60;86.10;;;;;;3568947;40;20044;-82
2021/05/30 00:15:28;;;;;;;16.02;6.10;;;10.60;87.20;;;;;;3577653;40;20052;-82
2021/05/30 00:17:55;;;;;;;15.82;6.85;;;10.60;86.80;;;;;;3577506;40;20274;-82
2021/05/30 00:20:22;;;;;;;18.45;6.40;;;10.50;86.30;;;;;;3586795;40;20052;-81
2021/05/30 00:22:47;;;;;;;12.57;5.50;;;10.50;86.10;;;;;;3577591;40;20037;-83
2021/05/30 00:25:13;;;;;;;16.15;5.25;;;10.50;85.40;;;;;;3586506;40;20057;-81
2021/05/30 00:27:39;;;;;;;12.32;6.57;;;10.50;85.60;;;;;;3586619;40;20073;-82
2021/05/30 00:30:06;;;;;;;12.70;6.32;;;10.50;85.70;;;;;;3586727;40;20047;-81
2021/05/30 00:32:32;;;;;;;12.30;5.53;;;10.50;86.30;;;;;;3586717;40;20033;-80
2021/05/30 00:34:58;;;;;;;20.33;6.18;;;10.50;85.90;;;;;;3586275;40;20045;-81
2021/05/30 00:37:24;;;;;;;17.98;7.25;;;10.50;87.30;;;;;;3576629;40;20070;-82
2021/05/30 00:39:50;;;;;;;12.98;6.68;;;10.50;86.60;;;;;;3586965;40;20040;-82
2021/05/30 00:42:16;;;;;;;20.45;7.05;;;10.50;86.20;;;;;;3577158;40;20128;-82
2021/05/30 00:44:42;;;;;;;11.38;6.35;;;10.50;86.20;;;;;;3584647;40;20063;-81
2021/05/30 00:47:08;;;;;;;16.27;5.55;;;10.50;87.10;;;;;;3585859;40;20040;-81
2021/05/30 00:49:33;;;;;;;15.95;5.30;;;10.50;86.00;;;;;;3586384;40;20051;-80
2021/05/30 00:51:59;;;;;;;13.00;6.55;;;10.50;86.60;;;;;;3586213;40;20128;-81
2021/05/30 00:54:26;;;;;;;12.10;5.25;;;10.50;86.10;;;;;;3568645;40;20052;-81
2021/05/30 00:56:52;;;;;;;13.93;5.95;;;10.50;86.50;;;;;;3586200;40;20036;-85
2021/05/30 00:59:18;;;;;;;16.45;6.93;;;10.50;86.20;;;;;;3577050;40;20047;-81
2021/05/30 01:01:44;;;;;;;11.27;5.57;;;10.40;85.70;;;;;;3586156;40;20080;-81
2021/05/30 01:04:11;;;;;;;13.10;6.10;;;10.50;86.10;;;;;;3576708;40;20040;-81
2021/05/30 01:06:38;;;;;;;23.85;6.65;;;10.50;86.50;;;;;;3586435;40;20511;-80
2021/05/30 01:09:05;;;;;;;11.63;4.97;;;10.50;87.40;;;;;;3576538;40;20095;-80
2021/05/30 01:11:32;;;;;;;13.93;5.15;;;10.50;85.90;;;;;;3586374;40;20048;-82
2021/05/30 01:13:59;;;;;;;21.00;5.43;;;10.60;86.90;;;;;;3586178;40;20045;-82
2021/05/30 01:16:26;;;;;;;11.35;5.57;;;10.50;86.80;;;;;;3586308;40;20122;-80
2021/05/30 01:18:54;;;;;;;19.67;6.70;;;10.40;86.30;;;;;;3577527;40;20059;-81
2021/05/30 01:21:21;;;;;;;13.02;7.15;;;10.40;86.80;;;;;;3586609;40;20075;-82
2021/05/30 01:23:52;;;;;;;18.52;7.57;;;10.50;87.20;;;;;;3577341;40;20048;-81
2021/05/30 01:26:19;;;;;;;8.30;4.45;;;10.50;86.90;;;;;;3576750;40;20319;-82
2021/05/30 01:28:45;;;;;;;17.77;5.80;;;10.40;86.50;;;;;;3586337;40;20420;-82
2021/05/30 01:31:11;;;;;;;20.30;7.13;;;10.50;87.80;;;;;;3585918;40;20040;-82
2021/05/30 01:33:37;;;;;;;15.13;7.05;;;10.40;86.60;;;;;;3568635;40;20141;-82
2021/05/30 01:36:04;;;;;;;13.18;6.45;;;10.40;88.20;;;;;;3568401;40;20327;-82
2021/05/30 01:38:30;;;;;;;13.10;7.00;;;10.40;87.00;;;;;;3586446;40;20250;-82
2021/05/30 01:40:56;;;;;;;16.67;6.80;;;10.40;87.00;;;;;;3576789;40;20323;-82
2021/05/30 01:43:21;;;;;;;15.27;7.22;;;10.40;87.10;;;;;;3576819;40;20045;-82
2021/05/30 01:45:47;;;;;;;20.60;6.70;;;10.40;86.50;;;;;;3576804;40;20045;-81
2021/05/30 01:48:13;;;;;;;13.25;6.78;;;10.40;87.00;;;;;;3577144;40;20040;-81
2021/05/30 01:50:39;;;;;;;17.42;7.10;;;10.30;87.50;;;;;;3587581;40;20253;-81
2021/05/30 01:53:10;;;;;;;12.95;6.22;;;10.30;88.00;;;;;;3577989;40;20080;-82
2021/05/30 01:55:49;;;;;;;16.08;7.15;;;10.30;87.20;;;;;;3576376;40;20348;-82
2021/05/30 01:58:16;;;;;;;14.18;7.32;;;10.30;87.60;;;;;;3577105;40;20237;-81
2021/05/30 02:00:45;;;;;;;15.73;6.97;;;10.30;87.60;;;;;;3576656;40;20040;-81
2021/05/30 02:03:12;;;;;;;18.70;7.38;;;10.40;87.50;;;;;;3577167;40;20045;-81
2021/05/30 02:05:41;;;;;;;13.73;5.85;;;10.30;87.60;;;;;;3577677;40;20284;-81
2021/05/30 02:08:08;;;;;;;19.50;7.68;;;10.20;87.00;;;;;;3577475;40;20040;-82
2021/05/30 02:10:35;;;;;;;17.90;7.50;;;10.20;87.20;;;;;;3576236;40;20037;-82
2021/05/30 02:13:04;;;;;;;12.00;7.57;;;10.20;87.10;;;;;;3577008;40;20053;-81
2021/05/30 02:15:30;;;;;;;13.38;6.68;;;10.30;87.10;;;;;;3577738;40;20110;-82
2021/05/30 02:17:56;;;;;;;19.13;6.30;;;10.20;87.20;;;;;;3575993;40;20053;-81
2021/05/30 02:20:33;;;;;;;16.45;6.75;;;10.30;86.40;;;;;;3576571;40;20056;-81
2021/05/30 02:22:59;;;;;;;15.20;7.05;;;10.20;87.40;;;;;;3576975;40;20036;-80
2021/05/30 02:25:25;;;;;;;18.08;6.70;;;10.20;86.90;;;;;;3576536;40;20070;-81
2021/05/30 02:27:52;;;;;;;21.08;6.85;;;10.10;88.00;;;;;;3577681;40;20045;-81
2021/05/30 02:30:20;;;;;;;13.63;7.70;;;10.10;88.10;;;;;;3577027;40;20044;-81
2021/05/30 02:32:47;;;;;;;17.55;8.02;;;10.00;88.00;;;;;;3576654;40;20033;-80
2021/05/30 02:35:13;;;;;;;20.55;8.05;;;10.00;87.80;;;;;;3567599;40;20078;-80
2021/05/30 02:37:39;;;;;;;19.27;6.68;;;10.00;87.60;;;;;;3577395;40;20081;-81
2021/05/30 02:40:06;;;;;;;18.50;8.02;;;10.00;87.40;;;;;;3577300;40;20037;-81
2021/05/30 02:42:32;;;;;;;18.05;7.78;;;9.90;88.80;;;;;;3577299;40;20116;-81
2021/05/30 02:44:58;;;;;;;16.30;8.57;;;9.80;87.80;;;;;;3567721;40;20044;-81
2021/05/30 02:47:24;;;;;;;12.10;7.30;;;9.80;87.40;;;;;;3576261;40;20655;-82
2021/05/30 02:49:50;;;;;;;12.38;7.22;;;9.80;87.20;;;;;;3577155;40;20268;-82
2021/05/30 02:52:16;;;;;;;11.32;5.95;;;9.80;87.20;;;;;;3565862;40;20037;-85
2021/05/30 02:54:42;;;;;;;15.82;7.47;;;9.80;87.10;;;;;;3557951;40;20079;-82
2021/05/30 02:57:08;;;;;;;14.38;7.05;;;9.80;86.70;;;;;;3568578;40;20331;-81
2021/05/30 02:59:34;;;;;;;14.80;7.00;;;9.80;87.10;;;;;;3567626;40;20328;-82
2021/05/30 03:02:00;;;;;;;13.55;6.53;;;9.80;86.80;;;;;;3575944;40;20137;-82
2021/05/30 03:04:25;;;;;;;12.35;6.47;;;9.70;86.70;;;;;;3577173;40;20037;-81
2021/05/30 03:06:51;;;;;;;14.55;6.22;;;9.70;86.70;;;;;;3577448;40;20052;-82
2021/05/30 03:09:18;;;;;;;15.57;7.50;;;9.70;87.20;;;;;;3575912;40;20102;-82
2021/05/30 03:11:44;;;;;;;17.75;7.60;;;9.70;87.30;;;;;;3568135;40;20044;-83
2021/05/30 03:14:10;;;;;;;12.88;6.70;;;9.70;87.20;;;;;;3575974;40;20040;-81
2021/05/30 03:16:38;;;;;;;13.40;6.32;;;9.70;86.90;;;;;;3577225;40;20138;-81
2021/05/30 03:19:04;;;;;;;16.38;8.00;;;9.70;87.10;;;;;;3576582;40;20053;-82
2021/05/30 03:21:30;;;;;;;16.75;7.18;;;9.60;87.70;;;;;;3576969;40;20080;-81
2021/05/30 03:23:56;;;;;;;20.67;8.35;;;9.70;87.80;;;;;;3576739;40;20052;-81
2021/05/30 03:26:21;;;;;;;21.40;8.95;;;9.60;87.90;;;;;;3575787;40;20587;-80
2021/05/30 03:28:47;;;;;;;15.02;6.90;;;9.70;87.90;;;;;;3577303;40;20134;-81
2021/05/30 03:31:13;;;;;;;16.73;7.55;;;9.80;87.70;;;;;;3575737;40;20240;-82
2021/05/30 03:33:39;;;;;;;20.67;8.02;;;9.80;88.10;;;;;;3577231;40;20255;-82
2021/05/30 03:36:10;;;;;;;17.90;9.38;;;9.80;88.20;;;;;;3575867;40;20053;-82
2021/05/30 03:38:36;;;;;;;13.45;7.82;;;9.80;88.10;;;;;;3576158;40;20357;-80
2021/05/30 03:41:04;;;;;;;13.93;5.40;;;9.80;87.90;;;;;;3567466;40;20056;-81
2021/05/30 03:43:30;;;;;;;9.98;6.35;;;9.80;88.40;;;;;;3576063;40;20048;-81
2021/05/30 03:45:56;;;;;;;17.50;7.10;;;9.90;88.30;;;;;;3567422;40;20059;-83
2021/05/30 03:48:22;;;;;;;14.68;6.63;;;9.90;88.30;;;;;;3576972;40;20044;-80
2021/05/30 03:50:49;;;;;;;22.08;7.43;;;9.90;88.10;;;;;;3576333;40;20048;-81
2021/05/30 03:53:19;;;;;;;19.23;8.40;;;10.00;88.00;;;;;;3577139;40;20041;-82
2021/05/30 03:55:46;;;;;;;15.95;7.78;;;9.90;88.10;;;;;;3575774;40;20301;-82
2021/05/30 03:58:13;;;;;;;15.20;7.10;;;10.00;88.40;;;;;;3576540;40;20045;-82
2021/05/30 04:00:39;;;;;;;24.08;9.05;;;10.00;88.60;;;;;;3576674;40;20041;-83
2021/05/30 04:03:06;;;;;;;15.52;7.47;;;10.00;88.80;;;;;;3576504;40;20045;-81
2021/05/30 04:05:32;;;;;;;16.67;7.88;;;10.00;88.70;;;;;;3576922;40;20040;-81
2021/05/30 04:07:58;;;;;;;18.98;8.30;;;10.10;88.50;;;;;;3575671;40;20112;-82
2021/05/30 04:10:24;;;;;;;15.57;8.48;;;10.10;88.90;;;;;;3575945;39;20422;-81
2021/05/30 04:12:50;;;;;;;18.35;8.50;;;10.10;88.80;;;;;;3576385;40;20560;-81
2021/05/30 04:15:16;;;;;;;17.27;8.40;;;10.10;89.30;;;;;;3592632;40;20049;-82
2021/05/30 04:17:47;;;;;;;18.55;8.70;;;10.20;89.10;;;;;;3575941;40;20037;-82
2021/05/30 04:20:20;;;;;;;17.70;7.65;;;10.20;89.50;;;;;;3575407;40;20109;-82
2021/05/30 04:22:46;;;;;;;16.00;7.75;;;10.20;89.80;;;;;;3567833;40;20131;-81
2021/05/30 04:25:14;;;;;;;14.55;6.97;;;10.20;89.60;;;;;;3576420;40;20056;-81
2021/05/30 04:27:40;;;;;;;13.82;5.63;;;10.20;89.10;;;;;;3567527;40;20047;-82
2021/05/30 04:30:12;;;;;;;17.55;6.22;;;10.20;89.30;;;;;;3567119;40;20286;-81
2021/05/30 04:32:38;;;;;;;19.73;6.53;;;10.20;89.00;;;;;;3576713;40;20051;-81
2021/05/30 04:35:05;;;;;;;23.58;8.52;;;10.20;89.30;;;;;;3574962;40;20257;-81
2021/05/30 04:37:32;;;;;;;19.77;7.45;;;10.30;89.60;;;;;;3575751;40;20080;-82
2021/05/30 04:39:57;;;;;;;15.32;6.35;;;10.30;89.40;;;;;;3574714;40;20049;-81
2021/05/30 04:42:23;;;;;;;17.45;6.70;;;10.40;89.50;;;;;;3576739;40;20045;-81
2021/05/30 04:44:49;;;;;;;12.52;6.70;;;10.50;89.60;;;;;;3576592;40;20069;-81
2021/05/30 04:47:15;;;;;;;16.25;7.18;;;10.60;89.60;;;;;;3575400;40;20037;-80
2021/05/30 04:49:41;;;;;;;9.55;5.53;;;10.70;89.70;;;;;;3576527;40;20044;-80
2021/05/30 04:52:08;;;;;;;12.13;6.82;;;10.70;89.40;;;;;;3575255;40;20049;-82
2021/05/30 04:54:34;;;;;;;16.73;7.25;;;10.70;89.30;;;;;;3576863;40;20048;-80
2021/05/30 04:57:00;;;;;;;15.00;6.68;;;10.70;89.00;;;;;;3586046;40;20048;-82
2021/05/30 04:59:28;;;;;;;11.48;4.70;;;10.70;89.00;;;;;;3586685;40;20048;-81
2021/05/30 05:01:53;;;;;;;16.85;7.63;;;10.80;89.20;;;;;;3586392;40;20337;-82
2021/05/30 05:04:19;;;;;;;14.88;6.10;;;10.90;89.00;;;;;;3568563;40;20045;-80
2021/05/30 05:06:46;;;;;;;11.45;4.72;;;10.90;88.90;;;;;;3577580;40;20052;-81
2021/05/30 05:09:11;;;;;;;21.00;8.30;;;10.90;88.90;;;;;;3568570;40;20045;-81
2021/05/30 05:11:37;;;;;;;17.13;7.47;;;10.90;89.10;;;;;;3577145;40;20098;-80
2021/05/30 05:14:03;;;;;;;11.20;6.13;;;10.90;89.10;;;;;;3576737;40;20041;-82
2021/05/30 05:16:30;;;;;;;10.88;5.93;;;10.90;89.40;;;;;;3577347;40;20130;-82
2021/05/30 05:18:56;;;;;;;17.35;6.13;;;11.00;89.30;;;;;;3576828;40;20098;-81
2021/05/30 05:21:22;;;;;;;9.45;4.60;;;11.20;89.70;;;;;;3576987;40;20051;-82
2021/05/30 05:23:48;;;;;;;13.48;6.55;;;11.30;89.40;;;;;;3568494;40;20040;-81
2021/05/30 05:26:14;;;;;;;8.38;5.45;;;11.40;89.20;;;;;;3568467;40;20041;-82
2021/05/30 05:28:40;;;;;;;13.23;5.53;;;11.50;88.90;;;;;;3586478;40;20045;-81
2021/05/30 05:31:06;;;;;;;10.98;5.45;;;11.60;89.10;;;;;;3568265;40;20044;-83
2021/05/30 05:33:32;;;;;;;17.63;6.10;;;11.80;89.30;;;;;;3586089;40;20340;-81
2021/05/30 05:35:58;;;;;;;11.80;5.47;;;11.90;88.80;;;;;;3568352;40;20080;-81
2021/05/30 05:38:24;;;;;;;14.65;6.70;;;12.00;88.80;;;;;;3586135;40;20088;-82
2021/05/30 05:40:50;;;;;;;11.27;5.85;;;12.10;88.90;;;;;;3576920;40;20052;-81
2021/05/30 05:43:15;;;;;;;12.98;6.28;;;12.10;88.90;;;;;;3576634;40;20251;-81
2021/05/30 05:45:42;;;;;;;16.58;7.65;;;12.10;88.50;;;;;;3576621;40;20055;-82
2021/05/30 05:48:13;;;;;;;17.52;6.60;;;12.00;88.80;;;;;;3576902;40;20373;-81
2021/05/30 05:50:40;;;;;;;8.57;6.25;;;12.00;88.80;;;;;;3586115;40;20141;-81
2021/05/30 05:53:06;;;;;;;15.25;6.38;;;12.00;88.70;;;;;;3576601;40;20373;-81
2021/05/30 05:55:33;;;;;;;10.30;6.53;;;12.00;88.70;;;;;;3583588;40;20055;-81
2021/05/30 05:58:00;;;;;;;11.10;5.55;;;12.00;88.80;;;;;;3576745;40;20054;-81
2021/05/30 06:00:26;;;;;;;15.30;6.45;;;12.20;89.10;;;;;;3585938;40;20242;-81
2021/05/30 06:02:52;;;;;;;15.10;5.55;;;12.40;88.70;;;;;;3585558;40;20037;-81
2021/05/30 06:05:20;;;;;;;9.75;5.72;;;12.60;88.30;;;;;;3568082;40;20169;-80
2021/05/30 06:07:47;;;;;;;7.82;4.82;;;12.70;87.50;;;;;;3585692;40;20064;-82
2021/05/30 06:10:15;;;;;;;10.32;5.57;;;12.90;87.20;;;;;;3585420;40;20044;-80
2021/05/30 06:12:41;;;;;;;13.00;5.03;;;13.10;87.90;;;;;;3576754;40;20040;-81
2021/05/30 06:15:09;;;;;;;6.28;4.32;;;13.20;88.20;;;;;;3576376;40;20048;-81
2021/05/30 06:17:36;;;;;;;13.15;7.07;;;13.50;88.60;;;;;;3576475;40;20239;-80
2021/05/30 06:20:04;;;;;;;10.10;5.40;;;13.70;88.80;;;;;;3585375;40;20351;-80
2021/05/30 06:22:31;;;;;;;11.52;6.20;;;13.90;88.70;;;;;;3585286;40;20044;-80
2021/05/30 06:24:57;;;;;;;12.35;6.88;;;14.10;88.20;;;;;;3585533;40;20048;-80
2021/05/30 06:27:22;;;;;;;14.35;6.05;;;14.10;87.40;;;;;;3585882;40;20112;-81
2021/05/30 06:29:48;;;;;;;12.23;5.32;;;14.10;87.50;;;;;;3576588;40;20047;-80
2021/05/30 06:32:15;;;;;;;9.85;4.10;;;14.10;87.50;;;;;;3556409;40;20251;-80
2021/05/30 06:34:41;;;;;;;9.48;4.20;;;14.20;87.10;;;;;;3585387;40;20084;-79
2021/05/30 06:37:07;;;;;;;10.10;4.85;;;14.30;87.40;;;;;;3569778;40;20068;-79
2021/05/30 06:39:33;;;;;;;9.50;3.95;;;14.40;86.60;;;;;;3577769;40;20084;-80
2021/05/30 06:41:59;;;;;;;8.88;3.88;;;15.00;88.50;;;;;;3569230;40;20421;-80
2021/05/30 06:44:25;;;;;;;7.75;4.30;;;15.70;86.60;;;;;;3577710;40;20040;-80
2021/05/30 06:46:51;;;;;;;7.38;3.83;;;16.40;86.60;;;;;;3586575;40;20444;-80
2021/05/30 06:49:17;;;;;;;6.10;4.93;;;16.90;85.10;;;;;;3578713;40;20133;-80
2021/05/30 06:51:43;;;;;;;6.15;3.53;;;17.50;84.90;;;;;;3570009;40;20045;-80
2021/05/30 06:54:09;;;;;;;5.68;3.83;;;18.00;83.30;;;;;;3577381;40;20053;-80
2021/05/30 06:56:35;;;;;;;10.07;3.85;;;18.20;83.40;;;;;;3577472;40;20047;-80
2021/05/30 06:59:02;;;;;;;11.07;3.70;;;17.90;81.30;;;;;;3577309;40;20080;-80
2021/05/30 07:01:28;;;;;;;6.82;3.72;;;18.20;82.30;;;;;;3586588;40;20036;-80
2021/05/30 07:03:55;;;;;;;9.45;3.35;;;18.80;82.00;;;;;;3586598;40;20100;-80
2021/05/30 07:06:22;;;;;;;8.77;3.35;;;19.00;82.00;;;;;;3569254;40;20044;-80
2021/05/30 07:08:58;;;;;;;9.88;4.15;;;19.30;80.70;;;;;;3586567;40;20053;-80
2021/05/30 07:11:24;;;;;;;7.55;3.47;;;19.10;79.30;;;;;;3586927;40;20080;-80
2021/05/30 07:13:50;;;;;;;7.63;4.30;;;19.10;80.20;;;;;;3577551;40;20036;-80
2021/05/30 07:16:17;;;;;;;7.88;3.50;;;19.00;80.10;;;;;;3567158;40;20052;-80
2021/05/30 07:18:44;;;;;;;8.25;3.92;;;18.40;77.70;;;;;;3585678;40;20297;-81
2021/05/30 07:21:10;;;;;;;9.32;4.40;;;17.50;78.00;;;;;;3586603;40;20066;-80
2021/05/30 07:23:37;;;;;;;10.80;5.10;;;17.80;79.30;;;;;;3586835;40;20095;-81
2021/05/30 07:26:03;;;;;;;12.25;4.40;;;18.20;77.30;;;;;;3586410;40;20424;-80
2021/05/30 07:28:29;;;;;;;8.73;3.75;;;18.50;77.90;;;;;;3586773;40;20033;-80
2021/05/30 07:30:57;;;;;;;13.32;4.82;;;18.90;76.60;;;;;;3577620;40;20343;-80
2021/05/30 07:33:26;;;;;;;7.88;3.92;;;18.90;76.10;;;;;;3577025;40;20141;-79
2021/05/30 07:35:51;;;;;;;10.32;4.03;;;18.80;75.90;;;;;;3577555;40;20350;-80
2021/05/30 07:38:18;;;;;;;9.50;4.18;;;19.00;75.30;;;;;;3576753;40;20207;-80
2021/05/30 07:40:45;;;;;;;11.48;4.65;;;19.20;75.40;;;;;;3586823;40;20425;-79
2021/05/30 07:43:11;;;;;;;11.07;4.72;;;19.50;76.10;;;;;;3586302;40;20051;-79
2021/05/30 07:45:37;;;;;;;8.80;4.90;;;19.90;74.20;;;;;;3577147;40;20226;-80
2021/05/30 07:48:03;;;;;;;7.15;4.13;;;20.00;74.90;;;;;;3585983;40;20059;-80
2021/05/30 07:50:29;;;;;;;10.32;4.57;;;19.90;75.10;;;;;;3584162;40;20044;-80
2021/05/30 07:52:58;;;;;;;9.80;4.25;;;19.80;73.50;;;;;;3586239;40;20609;-80
2021/05/30 07:55:27;;;;;;;6.70;4.38;;;19.40;73.90;;;;;;3577158;40;20043;-81
2021/05/30 07:57:55;;;;;;;9.85;6.53;;;18.70;73.60;;;;;;3585839;40;20048;-80
2021/05/30 08:00:22;;;;;;;9.65;5.20;;;18.10;72.90;;;;;;3586425;40;20111;-80
2021/05/30 08:02:48;;;;;;;8.35;5.53;;;18.10;74.00;;;;;;3586338;40;20632;-79
2021/05/30 08:05:20;;;;;;;11.25;5.50;;;18.50;74.50;;;;;;3586200;40;20084;-79
2021/05/30 08:07:48;;;;;;;9.95;6.07;;;19.00;74.00;;;;;;3577301;40;20040;-79
2021/05/30 08:10:16;;;;;;;10.50;5.63;;;19.10;72.70;;;;;;3585796;40;20052;-79
2021/05/30 08:12:42;;;;;;;8.57;4.88;;;19.00;69.30;;;;;;3586372;40;20550;-78
2021/05/30 08:15:10;;;;;;;11.02;5.43;;;18.90;71.60;;;;;;3586133;40;20051;-79
2021/05/30 08:17:37;;;;;;;8.63;4.55;;;19.00;71.30;;;;;;3586267;40;20040;-79
2021/05/30 08:20:18;;;;;;;6.38;4.78;;;19.00;70.10;;;;;;3577940;40;20048;-80
2021/05/30 08:22:45;;;;;;;9.77;5.38;;;18.90;70.50;;;;;;3586223;40;20047;-81
2021/05/30 08:25:11;;;;;;;14.98;6.28;;;19.00;70.00;;;;;;3586042;40;20072;-79
2021/05/30 08:27:37;;;;;;;9.98;4.55;;;19.00;70.70;;;;;;3568599;40;20048;-79
2021/05/30 08:30:06;;;;;;;8.88;4.90;;;19.50;70.20;;;;;;3585944;40;20186;-80
2021/05/30 08:32:32;;;;;;;11.82;5.95;;;19.90;69.90;;;;;;3586294;40;20246;-79
2021/05/30 08:35:00;;;;;;;10.23;5.68;;;20.00;68.60;;;;;;3585839;40;20040;-79
2021/05/30 08:37:26;;;;;;;11.75;5.43;;;20.30;68.80;;;;;;3586341;40;20331;-80
2021/05/30 08:39:52;;;;;;;8.07;4.45;;;20.30;67.10;;;;;;3586427;40;20041;-80
2021/05/30 08:42:19;;;;;;;10.32;5.50;;;20.00;68.20;;;;;;3586329;40;20040;-79
2021/05/30 08:44:49;;;;;;;11.13;5.93;;;20.10;65.30;;;;;;3586134;40;20067;-79
2021/05/30 08:47:17;;;;;;;12.90;6.55;;;19.90;67.70;;;;;;3585532;40;20211;-80
2021/05/30 08:49:43;;;;;;;8.07;5.07;;;19.90;67.60;;;;;;3576910;40;20072;-79
2021/05/30 08:52:09;;;;;;;6.90;4.95;;;19.60;66.40;;;;;;3585790;40;20484;-80
2021/05/30 08:54:35;;;;;;;10.57;5.45;;;19.60;68.20;;;;;;3577005;40;20598;-79
2021/05/30 08:57:01;;;;;;;10.25;5.13;;;19.90;68.10;;;;;;3585628;40;20412;-79
2021/05/30 08:59:30;;;;;;;12.52;5.38;;;20.00;66.80;;;;;;3576453;40;20104;-80
2021/05/30 09:02:12;;;;;;;12.40;5.55;;;19.30;67.50;;;;;;3585924;40;20090;-80
2021/05/30 09:04:41;;;;;;;14.20;5.38;;;18.50;66.90;;;;;;3576928;40;20044;-80
2021/05/30 09:07:08;;;;;;;12.13;6.20;;;18.20;70.30;;;;;;3585717;40;20048;-80
2021/05/30 09:09:42;;;;;;;10.93;5.53;;;18.40;70.50;;;;;;3585849;40;20040;-80
2021/05/30 09:12:25;;;;;;;8.00;5.03;;;18.60;70.50;;;;;;3576399;40;20330;-80
2021/05/30 09:14:54;;;;;;;11.18;5.00;;;18.90;68.50;;;;;;3583669;40;20036;-79
2021/05/30 09:17:27;;;;;;;10.27;4.78;;;18.90;69.40;;;;;;3576772;40;20656;-79
2021/05/30 09:19:55;;;;;;;16.70;6.07;;;18.80;68.70;;;;;;3576818;40;20040;-80
2021/05/30 09:22:25;;;;;;;11.30;5.60;;;18.60;69.10;;;;;;3568423;40;20147;-80
2021/05/30 09:24:52;;;;;;;15.57;7.25;;;18.20;68.80;;;;;;3585993;40;20047;-79
2021/05/30 09:27:22;;;;;;;8.85;5.55;;;18.20;70.60;;;;;;3585586;40;20044;-80
2021/05/30 09:30:24;;;;;;;11.18;4.65;;;18.20;69.90;;;;;;3585858;40;20040;-80
2021/05/30 09:32:56;;;;;;;12.60;5.43;;;17.80;67.60;;;;;;3585892;40;20044;-80
2021/05/30 09:35:27;;;;;;;11.65;6.18;;;17.60;71.30;;;;;;3585761;40;20386;-79
2021/05/30 09:38:20;;;;;;;8.05;5.15;;;17.80;71.20;;;;;;3585656;40;20083;-81
2021/05/30 09:40:52;;;;;;;11.50;5.75;;;18.10;70.30;;;;;;3585832;40;20043;-80
2021/05/30 09:43:27;;;;;;;6.05;4.57;;;18.20;71.00;;;;;;3575963;40;20061;-80
2021/05/30 09:46:07;;;;;;;9.30;5.40;;;18.40;69.40;;;;;;3568075;40;20149;-80
2021/05/30 09:48:34;;;;;;;8.02;4.43;;;18.40;68.20;;;;;;3578500;40;20060;-79
2021/05/30 09:51:21;;;;;;;13.38;6.25;;;18.40;69.30;;;;;;3578092;40;20080;-81
2021/05/30 09:53:47;;;;;;;8.70;5.45;;;18.30;70.00;;;;;;3585970;40;20044;-79
2021/05/30 09:56:34;;;;;;;7.43;3.70;;;18.30;70.40;;;;;;3585542;40;20032;-80
2021/05/30 09:59:01;;;;;;;9.43;4.75;;;18.50;67.10;;;;;;3582036;40;20037;-79
2021/05/30 10:01:28;;;;;;;8.00;4.38;;;18.40;69.40;;;;;;3576485;40;20690;-80
2021/05/30 10:03:57;;;;;;;6.60;4.32;;;18.30;69.20;;;;;;3585977;40;20063;-80
2021/05/30 10:06:23;;;;;;;10.23;4.78;;;18.40;70.00;;;;;;3582669;40;20051;-79
2021/05/30 10:08:50;;;;;;;8.40;4.30;;;18.60;70.50;;;;;;3585940;40;20318;-80
2021/05/30 10:11:19;;;;;;;6.15;3.55;;;18.90;70.30;;;;;;3576848;40;20084;-79
2021/05/30 10:13:45;;;;;;;7.25;4.78;;;19.20;68.90;;;;;;3586993;40;20059;-79
2021/05/30 10:16:14;;;;;;;7.55;3.55;;;19.40;68.50;;;;;;3577564;40;20040;-79
2021/05/30 10:18:47;;;;;;;12.77;4.47;;;19.10;66.10;;;;;;3587081;40;20106;-81
2021/05/30 10:21:19;;;;;;;9.70;3.95;;;18.80;64.80;;;;;;3577501;40;20297;-79
2021/05/30 10:23:50;;;;;;;5.03;2.92;;;18.20;67.20;;;;;;3587204;40;20569;-80
2021/05/30 10:26:23;;;;;;;7.90;3.90;;;17.60;68.10;;;;;;3584536;40;20044;-80
2021/05/30 10:28:58;;;;;;;11.15;3.92;;;17.20;68.90;;;;;;3578008;40;20193;-79
2021/05/30 10:31:33;;;;;;;6.72;3.45;;;17.10;69.90;;;;;;3586960;40;20036;-80
2021/05/30 10:34:11;;;;;;;7.30;3.70;;;17.00;70.70;;;;;;3586753;40;20048;-79
2021/05/30 10:36:42;;;;;;;6.65;3.00;;;16.90;70.40;;;;;;3587026;40;20527;-79
2021/05/30 10:39:31;;;;;;;9.50;3.35;;;16.90;70.60;;;;;;3586853;40;20040;-79
2021/05/30 10:42:18;;;;;;;8.60;3.58;;;17.00;69.40;;;;;;3586889;40;20126;-79
2021/05/30 10:45:02;;;;;;;6.60;3.10;;;17.00;70.70;;;;;;3580240;40;20328;-81
2021/05/30 10:47:44;;;;;;;6.72;3.20;;;16.90;70.00;;;;;;3584122;40;20079;-80
2021/05/30 10:50:13;;;;;;;7.70;3.38;;;16.60;72.00;;;;;;3585619;40;20629;-81
2021/05/30 10:52:41;;;;;;;9.52;4.57;;;16.80;71.20;;;;;;3578009;40;20043;-80
2021/05/30 10:55:16;;;;;;;8.15;2.67;;;16.80;70.30;;;;;;3577402;40;20665;-81
2021/05/30 10:57:47;;;;;;;6.65;3.17;;;16.60;70.00;;;;;;3587036;40;20047;-79
2021/05/30 11:00:19;;;;;;;7.53;3.33;;;16.50;70.70;;;;;;3586812;40;20064;-82
2021/05/30 11:03:07;;;;;;;6.60;3.22;;;16.50;70.60;;;;;;3577752;40;20046;-79
2021/05/30 11:05:55;;;;;;;7.85;3.38;;;16.60;72.40;;;;;;3586899;40;20040;-81
2021/05/30 11:08:33;;;;;;;7.30;2.85;;;16.80;69.80;;;;;;3577639;40;20056;-80
2021/05/30 11:11:24;;;;;;;5.60;3.47;;;16.50;70.60;;;;;;3585824;40;20124;-80
2021/05/30 11:13:54;;;;;;;7.47;3.17;;;16.30;70.80;;;;;;3586702;40;20044;-80
2021/05/30 11:16:29;;;;;;;10.23;4.05;;;16.20;71.60;;;;;;3586672;40;20036;-81
2021/05/30 11:18:58;;;;;;;9.75;4.53;;;16.40;71.80;;;;;;3584522;40;20044;-81
2021/05/30 11:21:32;;;;;;;10.60;3.35;;;16.70;71.90;;;;;;3577204;40;20040;-80
2021/05/30 11:24:07;;;;;;;6.72;3.05;;;16.90;71.00;;;;;;3586342;40;20033;-80
2021/05/30 11:26:34;;;;;;;10.05;3.13;;;16.90;69.40;;;;;;3586866;40;20238;-80
2021/05/30 11:29:01;;;;;;;6.10;2.75;;;16.80;70.00;;;;;;3577208;40;20242;-80
2021/05/30 11:31:27;;;;;;;6.28;2.72;;;16.70;70.30;;;;;;3577732;40;20040;-80
2021/05/30 11:33:57;;;;;;;9.63;3.28;;;16.60;70.60;;;;;;3577306;40;20079;-82
2021/05/30 11:36:37;;;;;;;5.57;2.20;;;16.70;70.40;;;;;;3586654;40;20044;-80
2021/05/30 11:39:13;;;;;;;6.00;3.17;;;16.60;70.30;;;;;;3583369;40;20044;-81
2021/05/30 11:41:44;;;;;;;6.70;3.40;;;16.40;71.20;;;;;;3569135;40;20055;-82
2021/05/30 11:44:15;;;;;;;6.45;2.63;;;16.30;71.30;;;;;;3586395;40;20052;-81
2021/05/30 11:46:52;;;;;;;4.18;2.30;;;16.20;71.40;;;;;;3586490;40;20040;-80
2021/05/30 11:49:24;;;;;;;5.20;3.85;;;16.20;71.30;;;;;;3579146;40;20072;-80
2021/05/30 11:52:02;;;;;;;9.35;3.42;;;16.10;71.70;;;;;;3592974;39;20303;-80
2021/05/30 11:54:50;;;;;;;5.15;2.55;;;16.00;71.90;;;;;;3577463;40;20052;-80
2021/05/30 11:57:24;;;;;;;9.00;4.03;;;16.00;72.80;;;;;;3586006;40;20320;-80
2021/05/30 11:59:56;;;;;;;7.65;3.85;;;16.10;72.30;;;;;;3577613;40;20327;-80
2021/05/30 12:02:31;;;;;;;8.85;2.97;;;16.20;71.60;;;;;;3586393;40;20060;-81
2021/05/30 12:05:02;;;;;;;9.93;2.50;;;16.10;71.70;;;;;;3586384;40;20242;-82
2021/05/30 12:07:28;;;;;;;11.23;3.53;;;16.00;71.60;;;;;;3577002;40;20044;-81
2021/05/30 12:09:56;;;;;;;7.95;4.80;;;15.80;72.00;;;;;;3577232;40;20032;-82
2021/05/30 12:12:37;;;;;;;6.18;3.40;;;15.60;72.60;;;;;;3586475;40;20036;-82
2021/05/30 12:15:24;;;;;;;7.10;4.13;;;15.50;72.90;;;;;;3576330;40;20032;-82
2021/05/30 12:18:01;;;;;;;8.90;3.58;;;15.60;74.90;;;;;;3591797;40;20342;-81
2021/05/30 12:20:29;;;;;;;7.90;3.90;;;16.00;72.50;;;;;;3586682;40;20051;-82
2021/05/30 12:23:20;;;;;;;9.88;3.55;;;16.40;73.10;;;;;;3585944;40;20048;-79
2021/05/30 12:25:56;;;;;;;8.60;4.38;;;16.80;71.70;;;;;;3577293;40;20032;-80
2021/05/30 12:28:24;;;;;;;9.32;2.80;;;16.70;70.30;;;;;;3583707;40;20032;-80
2021/05/30 12:30:52;;;;;;;6.95;4.28;;;16.70;70.60;;;;;;3586578;40;20036;-80
2021/05/30 12:33:19;;;;;;;5.55;3.72;;;16.60;71.00;;;;;;3585154;40;20048;-81
2021/05/30 12:35:52;;;;;;;7.38;4.00;;;16.50;70.20;;;;;;3577154;40;20044;-81
2021/05/30 12:38:28;;;;;;;8.32;4.63;;;16.20;70.80;;;;;;3560209;40;20089;-81
2021/05/30 12:40:55;;;;;;;8.05;3.78;;;16.10;71.40;;;;;;3563315;40;20052;-82
2021/05/30 12:43:40;;;;;;;10.45;5.53;;;16.00;72.10;;;;;;3544987;40;20287;-80
2021/05/30 12:46:10;;;;;;;8.15;4.82;;;15.90;72.70;;;;;;3560446;40;20048;-82
2021/05/30 12:48:43;;;;;;;4.75;3.38;;;15.80;72.20;;;;;;3549610;40;20044;-81